sensor_id;sensor_type;location;lat;lon;timestamp;P1;durP1;ratioP1;P2;durP2;ratioP2
20044;SDS011;10183;47.808;9.476;2024-03-25T00:01:14;19.17;;;17.20;;
20044;SDS011;10183;47.808;9.476;2024-03-25T00:03:39;18.60;;;16.00;;
20044;SDS011;10183;47.808;9.476;2024-03-25T00:06:05;21.50;;;18.57;;
20044;SDS011;10183;47.808;9.476;2024-03-25T00:08:31;24.43;;;17.17;;
20044;SDS011;10183;47.808;9.476;2024-03-25T00:10:57;19.27;;;17.37;;
20044;SDS011;10183;47.808;9.476;2024-03-25T00:13:22;20.47;;;18.37;;
20044;SDS011;10183;47.808;9.476;2024-03-25T00:15:48;19.83;;;17.80;;
20044;SDS011;10183;47.808;9.476;2024-03-25T00:18:14;20.03;;;18.07;;
20044;SDS011;10183;47.808;9.476;2024-03-25T00:20:40;19.77;;;17.67;;
20044;SDS011;10183;47.808;9.476;2024-03-25T00:23:05;19.70;;;17.90;;
20044;SDS011;10183;47.808;9.476;2024-03-25T00:25:32;19.43;;;17.63;;
20044;SDS011;10183;47.808;9.476;2024-03-25T00:27:57;21.67;;;18.33;;
20044;SDS011;10183;47.808;9.476;2024-03-25T00:30:23;20.60;;;18.23;;
20044;SDS011;10183;47.808;9.476;2024-03-25T00:32:49;19.20;;;17.37;;
20044;SDS011;10183;47.808;9.476;2024-03-25T00:35:15;19.10;;;17.23;;
20044;SDS011;10183;47.808;9.476;2024-03-25T00:37:41;19.60;;;17.70;;
20044;SDS011;10183;47.808;9.476;2024-03-25T00:40:07;18.40;;;16.83;;
20044;SDS011;10183;47.808;9.476;2024-03-25T00:42:33;20.40;;;18.50;;
20044;SDS011;10183;47.808;9.476;2024-03-25T00:44:58;19.33;;;17.70;;
20044;SDS011;10183;47.808;9.476;2024-03-25T00:47:24;25.47;;;18.57;;
20044;SDS011;10183;47.808;9.476;2024-03-25T00:49:51;20.50;;;18.40;;
20044;SDS011;10183;47.808;9.476;2024-03-25T00:52:16;19.63;;;17.73;;
20044;SDS011;10183;47.808;9.476;2024-03-25T00:54:42;19.73;;;17.80;;
20044;SDS011;10183;47.808;9.476;2024-03-25T00:57:08;19.63;;;17.57;;
20044;SDS011;10183;47.808;9.476;2024-03-25T00:59:33;19.57;;;17.63;;
20044;SDS011;10183;47.808;9.476;2024-03-25T01:01:59;21.20;;;19.00;;
20044;SDS011;10183;47.808;9.476;2024-03-25T01:04:25;21.93;;;19.03;;
20044;SDS011;10183;47.808;9.476;2024-03-25T01:06:50;21.73;;;19.20;;
20044;SDS011;10183;47.808;9.476;2024-03-25T01:09:16;21.47;;;19.27;;
20044;SDS011;10183;47.808;9.476;2024-03-25T01:11:42;21.60;;;19.30;;
20044;SDS011;10183;47.808;9.476;2024-03-25T01:14:07;24.63;;;18.80;;
20044;SDS011;10183;47.808;9.476;2024-03-25T01:16:33;21.77;;;19.37;;
20044;SDS011;10183;47.808;9.476;2024-03-25T01:18:58;21.67;;;19.57;;
20044;SDS011;10183;47.808;9.476;2024-03-25T01:21:24;24.00;;;21.50;;
20044;SDS011;10183;47.808;9.476;2024-03-25T01:23:50;23.57;;;20.30;;
20044;SDS011;10183;47.808;9.476;2024-03-25T01:26:16;26.87;;;21.57;;
20044;SDS011;10183;47.808;9.476;2024-03-25T01:28:42;20.80;;;18.67;;
20044;SDS011;10183;47.808;9.476;2024-03-25T01:31:08;26.20;;;20.70;;
20044;SDS011;10183;47.808;9.476;2024-03-25T01:33:34;25.43;;;21.17;;
20044;SDS011;10183;47.808;9.476;2024-03-25T01:36:00;32.23;;;21.73;;
20044;SDS011;10183;47.808;9.476;2024-03-25T01:38:26;26.07;;;22.03;;
20044;SDS011;10183;47.808;9.476;2024-03-25T01:40:52;23.23;;;20.83;;
20044;SDS011;10183;47.808;9.476;2024-03-25T01:43:17;26.23;;;21.97;;
20044;SDS011;10183;47.808;9.476;2024-03-25T01:45:43;26.23;;;21.43;;
20044;SDS011;10183;47.808;9.476;2024-03-25T01:48:09;23.40;;;21.07;;
20044;SDS011;10183;47.808;9.476;2024-03-25T01:50:38;23.70;;;21.00;;
20044;SDS011;10183;47.808;9.476;2024-03-25T01:53:07;26.50;;;20.87;;
20044;SDS011;10183;47.808;9.476;2024-03-25T01:55:33;27.00;;;21.53;;
20044;SDS011;10183;47.808;9.476;2024-03-25T01:58:01;24.53;;;21.50;;
20044;SDS011;10183;47.808;9.476;2024-03-25T02:00:28;28.87;;;22.33;;
20044;SDS011;10183;47.808;9.476;2024-03-25T02:02:54;28.10;;;23.73;;
20044;SDS011;10183;47.808;9.476;2024-03-25T02:05:20;27.50;;;23.17;;
20044;SDS011;10183;47.808;9.476;2024-03-25T02:07:46;25.80;;;23.00;;
20044;SDS011;10183;47.808;9.476;2024-03-25T02:10:13;25.37;;;22.40;;
20044;SDS011;10183;47.808;9.476;2024-03-25T02:12:42;28.00;;;25.03;;
20044;SDS011;10183;47.808;9.476;2024-03-25T02:15:09;26.10;;;23.47;;
20044;SDS011;10183;47.808;9.476;2024-03-25T02:17:35;24.43;;;21.63;;
20044;SDS011;10183;47.808;9.476;2024-03-25T02:20:02;24.30;;;21.50;;
20044;SDS011;10183;47.808;9.476;2024-03-25T02:22:30;29.77;;;21.87;;
20044;SDS011;10183;47.808;9.476;2024-03-25T02:24:57;27.80;;;21.43;;
20044;SDS011;10183;47.808;9.476;2024-03-25T02:27:24;24.57;;;21.30;;
20044;SDS011;10183;47.808;9.476;2024-03-25T02:29:53;23.40;;;21.00;;
20044;SDS011;10183;47.808;9.476;2024-03-25T02:32:19;24.33;;;21.73;;
20044;SDS011;10183;47.808;9.476;2024-03-25T02:34:46;24.67;;;22.07;;
20044;SDS011;10183;47.808;9.476;2024-03-25T02:37:16;28.50;;;21.63;;
20044;SDS011;10183;47.808;9.476;2024-03-25T02:39:42;24.20;;;21.60;;
20044;SDS011;10183;47.808;9.476;2024-03-25T02:42:09;25.87;;;22.00;;
20044;SDS011;10183;47.808;9.476;2024-03-25T02:44:34;23.27;;;20.77;;
20044;SDS011;10183;47.808;9.476;2024-03-25T02:47:00;25.63;;;22.50;;
20044;SDS011;10183;47.808;9.476;2024-03-25T02:49:27;24.90;;;22.50;;
20044;SDS011;10183;47.808;9.476;2024-03-25T02:51:53;25.37;;;22.50;;
20044;SDS011;10183;47.808;9.476;2024-03-25T02:54:18;24.77;;;22.33;;
20044;SDS011;10183;47.808;9.476;2024-03-25T02:56:44;25.97;;;23.00;;
20044;SDS011;10183;47.808;9.476;2024-03-25T02:59:10;26.53;;;21.30;;
20044;SDS011;10183;47.808;9.476;2024-03-25T03:01:35;23.83;;;21.30;;
20044;SDS011;10183;47.808;9.476;2024-03-25T03:04:01;24.77;;;22.10;;
20044;SDS011;10183;47.808;9.476;2024-03-25T03:06:27;23.43;;;21.13;;
20044;SDS011;10183;47.808;9.476;2024-03-25T03:08:52;29.23;;;22.63;;
20044;SDS011;10183;47.808;9.476;2024-03-25T03:11:18;26.83;;;22.50;;
20044;SDS011;10183;47.808;9.476;2024-03-25T03:13:43;24.83;;;22.33;;
20044;SDS011;10183;47.808;9.476;2024-03-25T03:16:09;25.40;;;21.63;;
20044;SDS011;10183;47.808;9.476;2024-03-25T03:18:35;25.97;;;22.20;;
20044;SDS011;10183;47.808;9.476;2024-03-25T03:21:00;24.60;;;22.10;;
20044;SDS011;10183;47.808;9.476;2024-03-25T03:23:26;24.47;;;21.20;;
20044;SDS011;10183;47.808;9.476;2024-03-25T03:25:51;25.37;;;22.67;;
20044;SDS011;10183;47.808;9.476;2024-03-25T03:28:17;25.23;;;22.60;;
20044;SDS011;10183;47.808;9.476;2024-03-25T03:30:43;24.17;;;21.60;;
20044;SDS011;10183;47.808;9.476;2024-03-25T03:33:09;23.80;;;20.37;;
20044;SDS011;10183;47.808;9.476;2024-03-25T03:35:35;24.50;;;21.90;;
20044;SDS011;10183;47.808;9.476;2024-03-25T03:38:01;29.70;;;21.43;;
20044;SDS011;10183;47.808;9.476;2024-03-25T03:40:27;24.90;;;22.23;;
20044;SDS011;10183;47.808;9.476;2024-03-25T03:42:54;30.27;;;22.97;;
20044;SDS011;10183;47.808;9.476;2024-03-25T03:45:20;23.13;;;20.10;;
20044;SDS011;10183;47.808;9.476;2024-03-25T03:47:49;22.50;;;19.87;;
20044;SDS011;10183;47.808;9.476;2024-03-25T03:50:15;22.17;;;20.03;;
20044;SDS011;10183;47.808;9.476;2024-03-25T03:52:41;22.57;;;19.30;;
20044;SDS011;10183;47.808;9.476;2024-03-25T03:55:06;25.17;;;20.67;;
20044;SDS011;10183;47.808;9.476;2024-03-25T03:57:32;23.67;;;21.07;;
20044;SDS011;10183;47.808;9.476;2024-03-25T03:59:58;22.93;;;20.27;;
20044;SDS011;10183;47.808;9.476;2024-03-25T04:02:24;23.40;;;20.50;;
20044;SDS011;10183;47.808;9.476;2024-03-25T04:04:51;29.90;;;21.40;;
20044;SDS011;10183;47.808;9.476;2024-03-25T04:07:16;22.47;;;20.30;;
20044;SDS011;10183;47.808;9.476;2024-03-25T04:09:42;24.73;;;21.40;;
20044;SDS011;10183;47.808;9.476;2024-03-25T04:12:08;25.63;;;21.47;;
20044;SDS011;10183;47.808;9.476;2024-03-25T04:14:35;24.10;;;21.87;;
20044;SDS011;10183;47.808;9.476;2024-03-25T04:17:00;26.63;;;22.80;;
20044;SDS011;10183;47.808;9.476;2024-03-25T04:19:26;26.20;;;22.70;;
20044;SDS011;10183;47.808;9.476;2024-03-25T04:21:55;24.53;;;21.50;;
20044;SDS011;10183;47.808;9.476;2024-03-25T04:24:21;25.90;;;22.60;;
20044;SDS011;10183;47.808;9.476;2024-03-25T04:26:46;24.67;;;22.13;;
20044;SDS011;10183;47.808;9.476;2024-03-25T04:29:14;27.50;;;22.00;;
20044;SDS011;10183;47.808;9.476;2024-03-25T04:31:41;25.17;;;22.47;;
20044;SDS011;10183;47.808;9.476;2024-03-25T04:34:06;29.10;;;22.70;;
20044;SDS011;10183;47.808;9.476;2024-03-25T04:36:32;27.87;;;22.87;;
20044;SDS011;10183;47.808;9.476;2024-03-25T04:38:57;28.23;;;24.27;;
20044;SDS011;10183;47.808;9.476;2024-03-25T04:41:23;28.83;;;23.80;;
20044;SDS011;10183;47.808;9.476;2024-03-25T04:43:49;26.33;;;23.80;;
20044;SDS011;10183;47.808;9.476;2024-03-25T04:46:14;29.87;;;25.33;;
20044;SDS011;10183;47.808;9.476;2024-03-25T04:48:40;31.47;;;26.90;;
20044;SDS011;10183;47.808;9.476;2024-03-25T04:51:06;29.63;;;25.13;;
20044;SDS011;10183;47.808;9.476;2024-03-25T04:53:33;27.40;;;24.40;;
20044;SDS011;10183;47.808;9.476;2024-03-25T04:55:59;27.50;;;24.00;;
20044;SDS011;10183;47.808;9.476;2024-03-25T04:58:25;31.40;;;24.50;;
20044;SDS011;10183;47.808;9.476;2024-03-25T05:00:50;32.23;;;24.07;;
20044;SDS011;10183;47.808;9.476;2024-03-25T05:03:16;29.57;;;23.47;;
20044;SDS011;10183;47.808;9.476;2024-03-25T05:05:41;24.17;;;21.50;;
20044;SDS011;10183;47.808;9.476;2024-03-25T05:08:07;26.30;;;21.10;;
20044;SDS011;10183;47.808;9.476;2024-03-25T05:10:33;36.57;;;32.67;;
20044;SDS011;10183;47.808;9.476;2024-03-25T05:12:59;35.63;;;31.87;;
20044;SDS011;10183;47.808;9.476;2024-03-25T05:15:25;33.20;;;29.87;;
20044;SDS011;10183;47.808;9.476;2024-03-25T05:17:50;32.93;;;29.70;;
20044;SDS011;10183;47.808;9.476;2024-03-25T05:20:16;27.97;;;25.13;;
20044;SDS011;10183;47.808;9.476;2024-03-25T05:22:42;31.73;;;25.40;;
20044;SDS011;10183;47.808;9.476;2024-03-25T05:25:08;29.97;;;24.60;;
20044;SDS011;10183;47.808;9.476;2024-03-25T05:27:33;35.13;;;26.10;;
20044;SDS011;10183;47.808;9.476;2024-03-25T05:29:59;32.90;;;28.27;;
20044;SDS011;10183;47.808;9.476;2024-03-25T05:32:24;30.77;;;27.47;;
20044;SDS011;10183;47.808;9.476;2024-03-25T05:34:51;27.83;;;24.93;;
20044;SDS011;10183;47.808;9.476;2024-03-25T05:37:17;37.20;;;32.93;;
20044;SDS011;10183;47.808;9.476;2024-03-25T05:39:43;38.13;;;34.03;;
20044;SDS011;10183;47.808;9.476;2024-03-25T05:42:08;39.93;;;34.47;;
20044;SDS011;10183;47.808;9.476;2024-03-25T05:44:34;28.73;;;25.70;;
20044;SDS011;10183;47.808;9.476;2024-03-25T05:47:00;33.73;;;26.63;;
20044;SDS011;10183;47.808;9.476;2024-03-25T05:49:25;32.17;;;25.27;;
20044;SDS011;10183;47.808;9.476;2024-03-25T05:51:51;39.63;;;28.27;;
20044;SDS011;10183;47.808;9.476;2024-03-25T05:54:17;43.57;;;30.40;;
20044;SDS011;10183;47.808;9.476;2024-03-25T05:56:42;36.07;;;29.87;;
20044;SDS011;10183;47.808;9.476;2024-03-25T05:59:08;35.53;;;30.93;;
20044;SDS011;10183;47.808;9.476;2024-03-25T06:01:33;68.03;;;45.30;;
20044;SDS011;10183;47.808;9.476;2024-03-25T06:04:02;35.90;;;29.13;;
20044;SDS011;10183;47.808;9.476;2024-03-25T06:06:28;38.03;;;32.27;;
20044;SDS011;10183;47.808;9.476;2024-03-25T06:08:54;87.70;;;55.07;;
20044;SDS011;10183;47.808;9.476;2024-03-25T06:11:19;64.10;;;43.30;;
20044;SDS011;10183;47.808;9.476;2024-03-25T06:13:45;49.77;;;36.80;;
20044;SDS011;10183;47.808;9.476;2024-03-25T06:16:12;47.60;;;38.73;;
20044;SDS011;10183;47.808;9.476;2024-03-25T06:18:38;42.10;;;33.40;;
20044;SDS011;10183;47.808;9.476;2024-03-25T06:21:05;39.30;;;33.20;;
20044;SDS011;10183;47.808;9.476;2024-03-25T06:23:32;37.03;;;29.83;;
20044;SDS011;10183;47.808;9.476;2024-03-25T06:25:58;35.67;;;25.97;;
20044;SDS011;10183;47.808;9.476;2024-03-25T06:28:23;31.47;;;26.67;;
20044;SDS011;10183;47.808;9.476;2024-03-25T06:30:50;34.27;;;26.20;;
20044;SDS011;10183;47.808;9.476;2024-03-25T06:33:35;35.90;;;28.80;;
20044;SDS011;10183;47.808;9.476;2024-03-25T06:36:20;38.23;;;29.30;;
20044;SDS011;10183;47.808;9.476;2024-03-25T06:38:46;53.00;;;36.37;;
20044;SDS011;10183;47.808;9.476;2024-03-25T06:41:12;42.87;;;31.60;;
20044;SDS011;10183;47.808;9.476;2024-03-25T06:43:38;36.53;;;32.50;;
20044;SDS011;10183;47.808;9.476;2024-03-25T06:46:06;30.13;;;26.17;;
20044;SDS011;10183;47.808;9.476;2024-03-25T06:48:35;40.53;;;31.30;;
20044;SDS011;10183;47.808;9.476;2024-03-25T06:51:01;36.00;;;28.00;;
20044;SDS011;10183;47.808;9.476;2024-03-25T06:53:30;35.33;;;28.73;;
20044;SDS011;10183;47.808;9.476;2024-03-25T06:55:56;37.30;;;29.43;;
20044;SDS011;10183;47.808;9.476;2024-03-25T06:58:23;35.57;;;29.87;;
20044;SDS011;10183;47.808;9.476;2024-03-25T07:00:49;37.20;;;27.03;;
20044;SDS011;10183;47.808;9.476;2024-03-25T07:03:16;32.33;;;26.70;;
20044;SDS011;10183;47.808;9.476;2024-03-25T07:05:45;37.57;;;30.47;;
20044;SDS011;10183;47.808;9.476;2024-03-25T07:08:17;35.17;;;30.03;;
20044;SDS011;10183;47.808;9.476;2024-03-25T07:10:44;30.83;;;27.27;;
20044;SDS011;10183;47.808;9.476;2024-03-25T07:13:10;37.40;;;28.93;;
20044;SDS011;10183;47.808;9.476;2024-03-25T07:15:37;37.17;;;26.87;;
20044;SDS011;10183;47.808;9.476;2024-03-25T07:18:03;28.90;;;25.80;;
20044;SDS011;10183;47.808;9.476;2024-03-25T07:20:30;32.87;;;27.20;;
20044;SDS011;10183;47.808;9.476;2024-03-25T07:22:56;27.90;;;25.00;;
20044;SDS011;10183;47.808;9.476;2024-03-25T07:25:22;30.80;;;23.87;;
20044;SDS011;10183;47.808;9.476;2024-03-25T07:27:48;36.57;;;25.03;;
20044;SDS011;10183;47.808;9.476;2024-03-25T07:30:14;39.20;;;28.20;;
20044;SDS011;10183;47.808;9.476;2024-03-25T07:32:40;58.60;;;51.40;;
20044;SDS011;10183;47.808;9.476;2024-03-25T07:35:06;41.43;;;33.70;;
20044;SDS011;10183;47.808;9.476;2024-03-25T07:37:33;42.13;;;30.00;;
20044;SDS011;10183;47.808;9.476;2024-03-25T07:39:59;42.87;;;33.20;;
20044;SDS011;10183;47.808;9.476;2024-03-25T07:42:25;71.63;;;56.93;;
20044;SDS011;10183;47.808;9.476;2024-03-25T07:44:51;69.63;;;58.80;;
20044;SDS011;10183;47.808;9.476;2024-03-25T07:47:17;63.07;;;49.77;;
20044;SDS011;10183;47.808;9.476;2024-03-25T07:49:43;46.37;;;41.33;;
20044;SDS011;10183;47.808;9.476;2024-03-25T07:52:09;45.27;;;39.27;;
20044;SDS011;10183;47.808;9.476;2024-03-25T07:54:34;62.03;;;55.47;;
20044;SDS011;10183;47.808;9.476;2024-03-25T07:57:02;62.03;;;55.33;;
20044;SDS011;10183;47.808;9.476;2024-03-25T07:59:31;54.60;;;45.30;;
20044;SDS011;10183;47.808;9.476;2024-03-25T08:01:56;62.03;;;55.43;;
20044;SDS011;10183;47.808;9.476;2024-03-25T08:04:22;79.03;;;69.60;;
20044;SDS011;10183;47.808;9.476;2024-03-25T08:06:48;66.17;;;53.10;;
20044;SDS011;10183;47.808;9.476;2024-03-25T08:09:14;70.30;;;60.27;;
20044;SDS011;10183;47.808;9.476;2024-03-25T08:11:40;73.07;;;56.67;;
20044;SDS011;10183;47.808;9.476;2024-03-25T08:14:08;80.17;;;57.90;;
20044;SDS011;10183;47.808;9.476;2024-03-25T08:16:34;80.03;;;58.90;;
20044;SDS011;10183;47.808;9.476;2024-03-25T08:19:00;78.07;;;55.47;;
20044;SDS011;10183;47.808;9.476;2024-03-25T08:21:26;78.57;;;55.27;;
20044;SDS011;10183;47.808;9.476;2024-03-25T08:23:51;85.30;;;63.60;;
20044;SDS011;10183;47.808;9.476;2024-03-25T08:26:17;76.03;;;57.00;;
20044;SDS011;10183;47.808;9.476;2024-03-25T08:28:43;76.73;;;60.17;;
20044;SDS011;10183;47.808;9.476;2024-03-25T08:31:08;77.30;;;62.47;;
20044;SDS011;10183;47.808;9.476;2024-03-25T08:33:34;84.93;;;63.77;;
20044;SDS011;10183;47.808;9.476;2024-03-25T08:36:00;81.27;;;67.87;;
20044;SDS011;10183;47.808;9.476;2024-03-25T08:38:26;80.63;;;67.40;;
20044;SDS011;10183;47.808;9.476;2024-03-25T08:40:52;83.03;;;68.03;;
20044;SDS011;10183;47.808;9.476;2024-03-25T08:43:18;88.17;;;71.60;;
20044;SDS011;10183;47.808;9.476;2024-03-25T08:45:44;86.57;;;69.77;;
20044;SDS011;10183;47.808;9.476;2024-03-25T08:48:11;83.23;;;68.33;;
20044;SDS011;10183;47.808;9.476;2024-03-25T08:50:36;85.67;;;73.03;;
20044;SDS011;10183;47.808;9.476;2024-03-25T08:53:03;88.10;;;70.70;;
20044;SDS011;10183;47.808;9.476;2024-03-25T08:55:29;83.33;;;70.83;;
20044;SDS011;10183;47.808;9.476;2024-03-25T08:57:55;78.70;;;59.90;;
20044;SDS011;10183;47.808;9.476;2024-03-25T09:00:23;76.23;;;63.27;;
20044;SDS011;10183;47.808;9.476;2024-03-25T09:02:49;75.87;;;64.03;;
20044;SDS011;10183;47.808;9.476;2024-03-25T09:05:15;70.37;;;59.20;;
20044;SDS011;10183;47.808;9.476;2024-03-25T09:07:43;76.67;;;64.17;;
20044;SDS011;10183;47.808;9.476;2024-03-25T09:10:09;76.27;;;62.80;;
20044;SDS011;10183;47.808;9.476;2024-03-25T09:12:54;81.97;;;64.43;;
20044;SDS011;10183;47.808;9.476;2024-03-25T09:15:20;82.93;;;66.43;;
20044;SDS011;10183;47.808;9.476;2024-03-25T09:17:45;86.00;;;66.07;;
20044;SDS011;10183;47.808;9.476;2024-03-25T09:20:11;48.20;;;39.27;;
20044;SDS011;10183;47.808;9.476;2024-03-25T09:22:42;67.17;;;56.33;;
20044;SDS011;10183;47.808;9.476;2024-03-25T09:25:09;64.60;;;51.70;;
20044;SDS011;10183;47.808;9.476;2024-03-25T09:27:34;88.17;;;77.70;;
20044;SDS011;10183;47.808;9.476;2024-03-25T09:30:01;85.97;;;76.37;;
20044;SDS011;10183;47.808;9.476;2024-03-25T09:32:28;86.53;;;75.20;;
20044;SDS011;10183;47.808;9.476;2024-03-25T09:34:55;90.53;;;75.00;;
20044;SDS011;10183;47.808;9.476;2024-03-25T09:37:21;89.23;;;77.00;;
20044;SDS011;10183;47.808;9.476;2024-03-25T09:39:47;90.60;;;73.93;;
20044;SDS011;10183;47.808;9.476;2024-03-25T09:42:14;81.27;;;70.47;;
20044;SDS011;10183;47.808;9.476;2024-03-25T09:44:43;58.03;;;51.37;;
20044;SDS011;10183;47.808;9.476;2024-03-25T09:47:09;72.20;;;59.20;;
20044;SDS011;10183;47.808;9.476;2024-03-25T09:49:37;69.17;;;60.57;;
20044;SDS011;10183;47.808;9.476;2024-03-25T09:52:05;39.50;;;35.47;;
20044;SDS011;10183;47.808;9.476;2024-03-25T09:54:32;39.83;;;34.83;;
20044;SDS011;10183;47.808;9.476;2024-03-25T09:57:01;64.50;;;54.33;;
20044;SDS011;10183;47.808;9.476;2024-03-25T09:59:29;97.03;;;86.13;;
20044;SDS011;10183;47.808;9.476;2024-03-25T10:01:55;102.03;;;85.03;;
20044;SDS011;10183;47.808;9.476;2024-03-25T10:04:23;65.47;;;58.53;;
20044;SDS011;10183;47.808;9.476;2024-03-25T10:06:48;65.43;;;58.47;;
20044;SDS011;10183;47.808;9.476;2024-03-25T10:09:18;60.23;;;53.90;;
20044;SDS011;10183;47.808;9.476;2024-03-25T10:11:46;94.23;;;79.73;;
20044;SDS011;10183;47.808;9.476;2024-03-25T10:14:15;90.10;;;74.77;;
20044;SDS011;10183;47.808;9.476;2024-03-25T10:16:42;84.60;;;71.80;;
20044;SDS011;10183;47.808;9.476;2024-03-25T10:19:08;38.30;;;33.10;;
20044;SDS011;10183;47.808;9.476;2024-03-25T10:21:34;57.57;;;51.47;;
20044;SDS011;10183;47.808;9.476;2024-03-25T10:24:00;99.53;;;84.77;;
20044;SDS011;10183;47.808;9.476;2024-03-25T10:26:29;42.77;;;35.00;;
20044;SDS011;10183;47.808;9.476;2024-03-25T10:29:04;76.83;;;68.40;;
20044;SDS011;10183;47.808;9.476;2024-03-25T10:31:31;78.00;;;63.37;;
20044;SDS011;10183;47.808;9.476;2024-03-25T10:33:57;90.40;;;75.93;;
20044;SDS011;10183;47.808;9.476;2024-03-25T10:36:23;92.83;;;80.07;;
20044;SDS011;10183;47.808;9.476;2024-03-25T10:38:52;87.30;;;75.97;;
20044;SDS011;10183;47.808;9.476;2024-03-25T10:41:21;90.70;;;76.53;;
20044;SDS011;10183;47.808;9.476;2024-03-25T10:43:47;91.70;;;78.20;;
20044;SDS011;10183;47.808;9.476;2024-03-25T10:46:20;38.57;;;34.37;;
20044;SDS011;10183;47.808;9.476;2024-03-25T10:48:57;63.47;;;56.50;;
20044;SDS011;10183;47.808;9.476;2024-03-25T10:51:29;92.30;;;78.13;;
20044;SDS011;10183;47.808;9.476;2024-03-25T10:53:55;86.90;;;71.77;;
20044;SDS011;10183;47.808;9.476;2024-03-25T10:56:23;89.37;;;76.13;;
20044;SDS011;10183;47.808;9.476;2024-03-25T10:58:49;90.47;;;75.67;;
20044;SDS011;10183;47.808;9.476;2024-03-25T11:01:16;89.27;;;77.93;;
20044;SDS011;10183;47.808;9.476;2024-03-25T11:03:43;81.40;;;69.47;;
20044;SDS011;10183;47.808;9.476;2024-03-25T11:06:14;81.50;;;69.13;;
20044;SDS011;10183;47.808;9.476;2024-03-25T11:08:42;76.33;;;66.20;;
20044;SDS011;10183;47.808;9.476;2024-03-25T11:11:12;83.77;;;72.37;;
20044;SDS011;10183;47.808;9.476;2024-03-25T11:13:38;82.63;;;72.47;;
20044;SDS011;10183;47.808;9.476;2024-03-25T11:16:04;72.70;;;64.93;;
20044;SDS011;10183;47.808;9.476;2024-03-25T11:18:32;78.70;;;64.67;;
20044;SDS011;10183;47.808;9.476;2024-03-25T11:21:04;78.50;;;61.60;;
20044;SDS011;10183;47.808;9.476;2024-03-25T11:23:36;79.00;;;63.00;;
20044;SDS011;10183;47.808;9.476;2024-03-25T11:26:26;67.73;;;56.53;;
20044;SDS011;10183;47.808;9.476;2024-03-25T11:28:52;79.47;;;64.17;;
20044;SDS011;10183;47.808;9.476;2024-03-25T11:31:20;76.03;;;64.10;;
20044;SDS011;10183;47.808;9.476;2024-03-25T11:33:49;75.97;;;58.67;;
20044;SDS011;10183;47.808;9.476;2024-03-25T11:36:15;78.40;;;65.13;;
20044;SDS011;10183;47.808;9.476;2024-03-25T11:38:43;82.00;;;64.97;;
20044;SDS011;10183;47.808;9.476;2024-03-25T11:41:12;72.30;;;61.40;;
20044;SDS011;10183;47.808;9.476;2024-03-25T11:43:39;81.33;;;63.87;;
20044;SDS011;10183;47.808;9.476;2024-03-25T11:46:06;82.30;;;63.07;;
20044;SDS011;10183;47.808;9.476;2024-03-25T11:48:32;78.97;;;66.23;;
20044;SDS011;10183;47.808;9.476;2024-03-25T11:50:58;78.63;;;62.37;;
20044;SDS011;10183;47.808;9.476;2024-03-25T11:53:25;79.83;;;64.87;;
20044;SDS011;10183;47.808;9.476;2024-03-25T11:55:52;76.03;;;63.60;;
20044;SDS011;10183;47.808;9.476;2024-03-25T11:58:18;77.27;;;63.37;;
20044;SDS011;10183;47.808;9.476;2024-03-25T12:00:44;71.37;;;62.53;;
20044;SDS011;10183;47.808;9.476;2024-03-25T12:03:18;78.13;;;62.97;;
20044;SDS011;10183;47.808;9.476;2024-03-25T12:05:44;73.37;;;64.10;;
20044;SDS011;10183;47.808;9.476;2024-03-25T12:08:10;79.47;;;65.70;;
20044;SDS011;10183;47.808;9.476;2024-03-25T12:10:37;70.30;;;60.73;;
20044;SDS011;10183;47.808;9.476;2024-03-25T12:13:22;55.83;;;49.90;;
20044;SDS011;10183;47.808;9.476;2024-03-25T12:15:52;51.90;;;46.40;;
20044;SDS011;10183;47.808;9.476;2024-03-25T12:18:18;49.67;;;44.30;;
20044;SDS011;10183;47.808;9.476;2024-03-25T12:20:45;49.53;;;43.27;;
20044;SDS011;10183;47.808;9.476;2024-03-25T12:23:11;55.03;;;49.33;;
20044;SDS011;10183;47.808;9.476;2024-03-25T12:25:36;48.35;;;43.08;;
20044;SDS011;10183;47.808;9.476;2024-03-25T12:28:07;55.17;;;49.30;;
20044;SDS011;10183;47.808;9.476;2024-03-25T12:30:40;51.42;;;46.05;;
20044;SDS011;10183;47.808;9.476;2024-03-25T12:33:14;54.90;;;49.10;;
20044;SDS011;10183;47.808;9.476;2024-03-25T12:35:41;51.65;;;45.60;;
20044;SDS011;10183;47.808;9.476;2024-03-25T12:38:06;52.13;;;46.78;;
20044;SDS011;10183;47.808;9.476;2024-03-25T12:40:33;49.42;;;44.30;;
20044;SDS011;10183;47.808;9.476;2024-03-25T12:42:59;53.38;;;48.13;;
20044;SDS011;10183;47.808;9.476;2024-03-25T12:45:24;52.70;;;47.30;;
20044;SDS011;10183;47.808;9.476;2024-03-25T12:47:50;53.78;;;48.05;;
20044;SDS011;10183;47.808;9.476;2024-03-25T12:50:16;54.53;;;48.92;;
20044;SDS011;10183;47.808;9.476;2024-03-25T12:52:43;54.67;;;49.08;;
20044;SDS011;10183;47.808;9.476;2024-03-25T12:55:09;57.13;;;51.33;;
20044;SDS011;10183;47.808;9.476;2024-03-25T12:57:35;56.22;;;50.50;;
20044;SDS011;10183;47.808;9.476;2024-03-25T13:00:01;56.20;;;50.58;;
20044;SDS011;10183;47.808;9.476;2024-03-25T13:02:28;50.00;;;44.65;;
20044;SDS011;10183;47.808;9.476;2024-03-25T13:04:56;61.30;;;54.83;;
20044;SDS011;10183;47.808;9.476;2024-03-25T13:07:22;67.18;;;53.92;;
20044;SDS011;10183;47.808;9.476;2024-03-25T13:09:47;47.97;;;42.97;;
20044;SDS011;10183;47.808;9.476;2024-03-25T13:12:13;48.72;;;43.58;;
20044;SDS011;10183;47.808;9.476;2024-03-25T13:14:39;49.42;;;42.75;;
20044;SDS011;10183;47.808;9.476;2024-03-25T13:17:04;49.60;;;44.10;;
20044;SDS011;10183;47.808;9.476;2024-03-25T13:19:30;47.47;;;42.38;;
20044;SDS011;10183;47.808;9.476;2024-03-25T13:21:56;52.60;;;47.10;;
20044;SDS011;10183;47.808;9.476;2024-03-25T13:24:22;49.78;;;44.58;;
20044;SDS011;10183;47.808;9.476;2024-03-25T13:26:48;49.40;;;44.22;;
20044;SDS011;10183;47.808;9.476;2024-03-25T13:29:14;45.92;;;41.15;;
20044;SDS011;10183;47.808;9.476;2024-03-25T13:31:39;58.90;;;52.88;;
20044;SDS011;10183;47.808;9.476;2024-03-25T13:34:05;46.63;;;41.92;;
20044;SDS011;10183;47.808;9.476;2024-03-25T13:36:31;62.67;;;56.08;;
20044;SDS011;10183;47.808;9.476;2024-03-25T13:38:57;65.10;;;58.30;;
20044;SDS011;10183;47.808;9.476;2024-03-25T13:41:23;59.85;;;53.55;;
20044;SDS011;10183;47.808;9.476;2024-03-25T13:43:49;63.97;;;57.22;;
20044;SDS011;10183;47.808;9.476;2024-03-25T13:46:15;63.20;;;56.47;;
20044;SDS011;10183;47.808;9.476;2024-03-25T13:48:41;64.45;;;57.75;;
20044;SDS011;10183;47.808;9.476;2024-03-25T13:51:07;64.78;;;57.88;;
20044;SDS011;10183;47.808;9.476;2024-03-25T13:53:33;60.88;;;54.58;;
20044;SDS011;10183;47.808;9.476;2024-03-25T13:55:59;61.17;;;54.75;;
20044;SDS011;10183;47.808;9.476;2024-03-25T13:58:27;57.30;;;51.00;;
20044;SDS011;10183;47.808;9.476;2024-03-25T14:00:53;61.40;;;55.00;;
20044;SDS011;10183;47.808;9.476;2024-03-25T14:03:20;60.28;;;53.97;;
20044;SDS011;10183;47.808;9.476;2024-03-25T14:05:46;56.35;;;50.35;;
20044;SDS011;10183;47.808;9.476;2024-03-25T14:08:12;57.00;;;51.15;;
20044;SDS011;10183;47.808;9.476;2024-03-25T14:10:42;57.45;;;51.42;;
20044;SDS011;10183;47.808;9.476;2024-03-25T14:13:08;56.25;;;50.55;;
20044;SDS011;10183;47.808;9.476;2024-03-25T14:15:34;51.70;;;46.10;;
20044;SDS011;10183;47.808;9.476;2024-03-25T14:17:59;37.85;;;33.83;;